createdAt,value
2023-05-23T00:02:13.556Z,73.37
2023-05-23T00:04:58.671Z,73.85
2023-05-23T00:07:42.993Z,73.64
2023-05-23T00:10:28.542Z,73.90
2023-05-23T00:13:14.756Z,75.03
2023-05-23T00:15:59.051Z,74.25
2023-05-23T00:18:43.292Z,74.89
2023-05-23T00:21:27.562Z,74.04
2023-05-23T00:24:11.752Z,74.60
2023-05-23T00:26:59.105Z,74.98
2023-05-23T00:29:43.030Z,74.56
2023-05-23T00:32:27.114Z,74.27
2023-05-23T00:35:11.270Z,74.44
2023-05-23T00:37:55.675Z,74.65
2023-05-23T00:40:39.815Z,75.29
2023-05-23T00:43:25.878Z,74.78
2023-05-23T00:46:11.630Z,74.81
2023-05-23T00:48:56.443Z,75.34
2023-05-23T00:51:42.432Z,75.05
2023-05-23T00:54:31.270Z,74.63
2023-05-23T00:57:15.223Z,73.79
2023-05-23T01:00:00.448Z,74.94
2023-05-23T01:02:47.360Z,74.63
2023-05-23T01:05:31.883Z,75.56
2023-05-23T01:08:16.688Z,76.55
2023-05-23T01:11:07.321Z,76.00
2023-05-23T01:13:58.353Z,75.79
2023-05-23T01:16:49.883Z,75.67
2023-05-23T01:19:50.673Z,75.39
2023-05-23T01:23:01.531Z,75.93
2023-05-23T01:26:05.588Z,75.82
2023-05-23T01:28:56.113Z,76.29
2023-05-23T01:31:45.320Z,77.16
2023-05-23T01:34:31.606Z,77.46
2023-05-23T01:37:18.832Z,76.64
2023-05-23T01:40:02.757Z,77.18
2023-05-23T01:42:49.042Z,76.72
2023-05-23T01:45:35.095Z,76.84
2023-05-23T01:48:20.505Z,77.31
2023-05-23T01:51:04.683Z,76.92
2023-05-23T01:53:48.952Z,77.15
2023-05-23T01:56:33.338Z,76.43
2023-05-23T01:59:18.350Z,76.63
2023-05-23T02:02:03.672Z,75.39
2023-05-23T02:04:47.589Z,76.54
2023-05-23T02:07:31.513Z,75.88
2023-05-23T02:10:15.555Z,74.63
2023-05-23T02:12:59.519Z,74.63
2023-05-23T02:15:46.077Z,73.30
2023-05-23T02:18:31.596Z,73.68
2023-05-23T02:21:15.473Z,74.28
2023-05-23T02:23:59.384Z,74.67
2023-05-23T02:26:43.408Z,75.40
2023-05-23T02:29:27.523Z,76.76
2023-05-23T02:32:11.811Z,76.69
2023-05-23T02:34:57.635Z,76.38
2023-05-23T02:37:41.902Z,76.75
2023-05-23T02:40:25.829Z,77.33
2023-05-23T02:43:09.811Z,76.61
2023-05-23T02:45:53.764Z,76.34
2023-05-23T02:48:37.760Z,76.96
2023-05-23T02:51:24.336Z,76.37
2023-05-23T02:54:08.353Z,76.46
2023-05-23T02:56:54.992Z,75.58
2023-05-23T02:59:39.646Z,76.70
2023-05-23T03:02:24.174Z,76.14
2023-05-23T03:05:09.360Z,76.49
2023-05-23T03:07:54.714Z,75.43
2023-05-23T03:10:38.763Z,74.74
2023-05-23T03:13:23.275Z,75.12
2023-05-23T03:16:07.661Z,75.38
2023-05-23T03:18:51.865Z,75.38
2023-05-23T03:21:36.383Z,75.29
2023-05-23T03:24:21.644Z,76.22
2023-05-23T03:27:07.151Z,75.32
2023-05-23T03:29:51.632Z,75.12
2023-05-23T03:32:36.124Z,75.91
2023-05-23T03:35:20.360Z,76.24
2023-05-23T03:38:04.267Z,75.94
2023-05-23T03:40:50.954Z,75.09
2023-05-23T03:43:34.932Z,74.64
2023-05-23T03:46:18.936Z,74.61
2023-05-23T03:49:03.531Z,74.78
2023-05-23T03:51:47.419Z,74.64
2023-05-23T03:54:33.470Z,75.41
2023-05-23T03:57:18.673Z,73.88
2023-05-23T04:00:02.507Z,74.44
2023-05-23T04:02:50.271Z,74.14
2023-05-23T04:05:35.818Z,74.17
2023-05-23T04:08:22.235Z,72.94
2023-05-23T04:11:08.016Z,72.79
2023-05-23T04:13:55.818Z,72.50
2023-05-23T04:16:42.006Z,72.90
2023-05-23T04:19:26.896Z,72.37
2023-05-23T04:22:10.936Z,72.25
2023-05-23T04:24:54.877Z,71.65
2023-05-23T04:27:40.698Z,71.37
2023-05-23T04:30:26.979Z,70.97
2023-05-23T04:33:11.897Z,70.50
2023-05-23T04:35:57.466Z,70.79
2023-05-23T04:38:41.989Z,70.86
2023-05-23T04:41:26.095Z,70.41
2023-05-23T04:44:30.544Z,70.17
2023-05-23T04:47:37.314Z,69.61
2023-05-23T04:50:26.273Z,68.39
2023-05-23T04:53:10.257Z,69.54
2023-05-23T04:55:55.348Z,67.84
2023-05-23T04:58:40.767Z,68.89
2023-05-23T05:01:26.620Z,67.86
2023-05-23T05:04:12.424Z,66.94
2023-05-23T05:06:57.459Z,68.53
2023-05-23T05:09:41.396Z,68.06
2023-05-23T05:12:27.845Z,67.26
2023-05-23T05:15:12.935Z,67.66
2023-05-23T05:17:59.009Z,67.37
2023-05-23T05:20:44.460Z,68.02
2023-05-23T05:23:29.643Z,67.61
2023-05-23T05:26:14.548Z,68.27
2023-05-23T05:28:58.943Z,67.86
2023-05-23T05:31:45.426Z,67.60
2023-05-23T05:34:29.885Z,67.66
2023-05-23T05:37:15.668Z,66.41
2023-05-23T05:40:06.372Z,65.91
2023-05-23T05:42:52.170Z,64.95
2023-05-23T05:45:36.124Z,63.46
2023-05-23T05:48:21.132Z,63.45
2023-05-23T05:51:05.953Z,64.59
2023-05-23T05:53:52.596Z,64.15
2023-05-23T05:56:37.256Z,63.55
2023-05-23T05:59:21.435Z,63.11
2023-05-23T06:02:05.683Z,62.89
2023-05-23T06:04:49.579Z,63.57
2023-05-23T06:07:33.686Z,61.99
2023-05-23T06:10:19.296Z,61.40
2023-05-23T06:13:04.535Z,63.13
2023-05-23T06:15:50.102Z,62.69
2023-05-23T06:18:34.508Z,60.72
2023-05-23T06:21:18.606Z,60.33
2023-05-23T06:24:06.788Z,60.09
2023-05-23T06:26:52.545Z,59.32
2023-05-23T06:29:37.050Z,60.17
2023-05-23T06:32:21.056Z,60.17
2023-05-23T06:35:05.446Z,59.26
2023-05-23T06:37:50.778Z,59.74
2023-05-23T06:40:35.819Z,60.54
2023-05-23T06:43:21.410Z,59.37
2023-05-23T06:46:09.620Z,59.95
2023-05-23T06:48:59.495Z,59.84
2023-05-23T06:51:52.534Z,59.55
2023-05-23T06:54:36.663Z,59.58
2023-05-23T06:57:20.961Z,59.09
2023-05-23T07:00:07.803Z,57.74
2023-05-23T07:03:01.193Z,58.10
2023-05-23T07:05:45.996Z,56.73
2023-05-23T07:08:32.349Z,57.58
2023-05-23T07:11:18.321Z,56.45
2023-05-23T07:14:08.675Z,57.54
2023-05-23T07:16:57.802Z,57.49
2023-05-23T07:19:41.868Z,57.61
2023-05-23T07:22:25.824Z,56.74
2023-05-23T07:25:10.594Z,57.12
2023-05-23T07:27:54.916Z,53.96
2023-05-23T07:30:39.799Z,52.50
2023-05-23T07:33:25.408Z,53.10
2023-05-23T07:36:13.625Z,54.39
2023-05-23T07:38:57.639Z,54.44
2023-05-23T07:41:41.660Z,53.92
2023-05-23T07:44:25.568Z,55.90
2023-05-23T07:47:10.938Z,55.64
2023-05-23T07:49:56.873Z,55.15
2023-05-23T07:52:41.420Z,55.18
2023-05-23T07:55:28.350Z,55.83
2023-05-23T07:58:12.509Z,55.78
2023-05-23T08:00:58.108Z,55.13
2023-05-23T08:04:01.875Z,54.51
2023-05-23T08:07:03.561Z,55.27
2023-05-23T08:10:03.139Z,53.59
2023-05-23T08:12:47.337Z,54.87
2023-05-23T08:15:35.949Z,55.26
2023-05-23T08:18:26.788Z,54.13
2023-05-23T08:21:10.809Z,53.66
2023-05-23T08:23:56.134Z,53.97
2023-05-23T08:26:40.300Z,55.30
2023-05-23T08:29:28.278Z,54.36
2023-05-23T08:32:12.583Z,54.27
2023-05-23T08:34:56.918Z,54.79
2023-05-23T08:37:42.125Z,54.63
2023-05-23T08:40:32.611Z,53.38
2023-05-23T08:43:29.342Z,53.55
2023-05-23T08:46:13.952Z,53.83
2023-05-23T08:49:01.266Z,53.95
2023-05-23T08:51:48.350Z,53.60
2023-05-23T08:54:37.480Z,52.26
2023-05-23T08:57:23.127Z,52.33
2023-05-23T09:00:15.175Z,52.71
2023-05-23T09:03:00.314Z,54.31
2023-05-23T09:05:59.010Z,54.37
2023-05-23T09:08:46.133Z,55.76
2023-05-23T09:11:36.144Z,55.81
2023-05-23T09:14:26.984Z,55.85
2023-05-23T09:17:19.358Z,54.19
2023-05-23T09:20:05.840Z,53.75
2023-05-23T09:22:59.323Z,53.25
2023-05-23T09:25:48.530Z,53.60
2023-05-23T09:28:34.813Z,55.28
2023-05-23T09:31:20.168Z,54.04
2023-05-23T09:34:05.111Z,53.48
2023-05-23T09:36:50.481Z,54.65
2023-05-23T09:39:38.922Z,55.59
2023-05-23T09:42:24.076Z,54.19
2023-05-23T09:45:08.944Z,53.51
2023-05-23T09:47:54.514Z,50.75
2023-05-23T09:50:38.708Z,52.58
2023-05-23T09:53:23.108Z,52.93
2023-05-23T09:56:08.790Z,52.27
2023-05-23T09:58:55.290Z,51.89
2023-05-23T10:01:39.543Z,53.56
2023-05-23T10:04:27.491Z,52.74
2023-05-23T10:07:18.156Z,52.52
2023-05-23T10:10:05.764Z,53.32
2023-05-23T10:12:52.870Z,52.86
2023-05-23T10:15:41.059Z,54.69
2023-05-23T10:18:30.543Z,56.67
2023-05-23T10:21:20.976Z,58.68
2023-05-23T10:24:05.513Z,68.32
2023-05-23T10:26:50.200Z,67.63
2023-05-23T10:29:35.559Z,69.13
2023-05-23T10:32:20.150Z,72.96
2023-05-23T10:35:12.293Z,77.16
2023-05-23T10:38:03.595Z,83.44
2023-05-23T10:40:55.634Z,85.69
2023-05-23T10:43:47.093Z,87.18
2023-05-23T10:46:52.864Z,87.56
2023-05-23T10:49:44.618Z,95.00
2023-05-23T10:52:29.268Z,99.75
2023-05-23T10:55:18.418Z,99.07
2023-05-23T10:58:12.941Z,98.07
2023-05-23T11:00:59.166Z,94.72
2023-05-23T11:03:54.769Z,92.16
2023-05-23T11:06:43.718Z,90.70
2023-05-23T11:09:28.091Z,83.97
2023-05-23T11:12:13.494Z,84.27
2023-05-23T11:14:57.487Z,77.77
2023-05-23T11:17:52.727Z,76.44
2023-05-23T11:20:39.196Z,76.31
2023-05-23T11:23:23.999Z,79.36
2023-05-23T11:26:31.124Z,72.50
2023-05-23T11:29:18.155Z,75.34
2023-05-23T11:32:02.115Z,72.78
2023-05-23T11:34:46.236Z,73.69
2023-05-23T11:37:30.693Z,68.72
2023-05-23T11:40:29.135Z,66.56
2023-05-23T11:43:15.249Z,69.58
2023-05-23T11:46:09.861Z,67.11
2023-05-23T11:48:55.107Z,67.39
2023-05-23T11:51:39.160Z,65.70
2023-05-23T11:54:24.899Z,62.31
2023-05-23T11:57:08.984Z,62.49
2023-05-23T11:59:53.261Z,65.91
2023-05-23T12:02:42.311Z,69.02
2023-05-23T12:05:26.279Z,65.54
2023-05-23T12:08:13.372Z,69.93
2023-05-23T12:11:00.515Z,70.26
2023-05-23T12:13:45.056Z,69.36
2023-05-23T12:16:30.070Z,70.48
2023-05-23T12:19:16.381Z,70.40
2023-05-23T12:22:07.477Z,70.12
2023-05-23T12:24:54.259Z,69.29
2023-05-23T12:27:38.842Z,67.08
2023-05-23T12:30:22.698Z,67.66
2023-05-23T12:33:09.840Z,68.15
2023-05-23T12:35:55.209Z,67.01
2023-05-23T12:38:40.975Z,68.33
2023-05-23T12:41:24.914Z,73.67
2023-05-23T12:44:08.797Z,72.36
2023-05-23T12:46:52.716Z,73.59
2023-05-23T12:49:37.269Z,74.81
2023-05-23T12:52:22.590Z,76.58
2023-05-23T12:55:07.376Z,75.91
2023-05-23T12:57:51.374Z,76.42
2023-05-23T13:00:35.313Z,74.46
2023-05-23T13:03:19.634Z,74.11
2023-05-23T13:06:04.237Z,72.57
2023-05-23T13:08:50.871Z,73.65
2023-05-23T13:11:34.942Z,71.72
2023-05-23T13:14:18.946Z,73.49
2023-05-23T13:17:02.802Z,72.61
2023-05-23T13:19:49.150Z,74.52
2023-05-23T13:22:33.450Z,71.03
2023-05-23T13:25:18.917Z,72.35
2023-05-23T13:28:04.157Z,71.78
2023-05-23T13:30:48.679Z,70.99
2023-05-23T13:33:32.952Z,67.35
2023-05-23T13:36:17.026Z,68.81
2023-05-23T13:39:01.319Z,68.91
2023-05-23T13:41:46.677Z,63.73
2023-05-23T13:44:30.606Z,64.36
2023-05-23T13:47:15.939Z,60.92
2023-05-23T13:50:00.136Z,63.41
2023-05-23T13:52:45.931Z,65.48
2023-05-23T13:55:31.671Z,62.43
2023-05-23T13:58:17.104Z,61.60
2023-05-23T14:01:01.079Z,61.32
2023-05-23T14:03:45.051Z,61.87
2023-05-23T14:06:29.137Z,62.09
2023-05-23T14:09:13.257Z,66.27
2023-05-23T14:11:57.334Z,66.79
2023-05-23T14:14:42.934Z,72.08
2023-05-23T14:17:27.458Z,74.72
2023-05-23T14:20:12.200Z,71.86
2023-05-23T14:22:56.361Z,69.15
2023-05-23T14:25:40.992Z,63.41
2023-05-23T14:28:25.231Z,61.96
2023-05-23T14:31:10.758Z,60.82
2023-05-23T14:33:56.150Z,59.56
2023-05-23T14:36:40.055Z,56.72
2023-05-23T14:39:25.673Z,53.73
2023-05-23T14:42:09.714Z,52.62
2023-05-23T14:44:54.200Z,52.73
2023-05-23T14:47:40.753Z,53.04
2023-05-23T14:50:24.729Z,53.25
2023-05-23T14:53:08.684Z,56.75
2023-05-23T14:55:52.641Z,57.31
2023-05-23T14:58:36.621Z,59.09
2023-05-23T15:01:20.652Z,63.14
2023-05-23T15:04:09.416Z,63.36
2023-05-23T15:06:53.868Z,64.78
2023-05-23T15:09:37.748Z,67.01
2023-05-23T15:12:21.672Z,68.50
2023-05-23T15:15:06.255Z,68.93
2023-05-23T15:17:53.303Z,70.17
2023-05-23T15:20:38.927Z,69.08
2023-05-23T15:23:22.923Z,67.51
2023-05-23T15:26:06.944Z,68.13
2023-05-23T15:28:50.992Z,66.67
2023-05-23T15:31:34.941Z,69.21
2023-05-23T15:34:18.991Z,65.26
2023-05-23T15:37:04.580Z,63.09
2023-05-23T15:39:48.851Z,63.76
2023-05-23T15:42:33.249Z,63.47
2023-05-23T15:45:17.622Z,62.78
2023-05-23T15:48:01.889Z,63.86
2023-05-23T15:50:46.243Z,61.43
2023-05-23T15:53:40.095Z,59.94
2023-05-23T15:56:32.565Z,63.48
2023-05-23T15:59:16.677Z,62.89
2023-05-23T16:02:01.476Z,64.90
2023-05-23T16:04:45.524Z,66.61
2023-05-23T16:07:29.472Z,66.88
2023-05-23T16:10:15.006Z,69.08
2023-05-23T16:12:58.917Z,68.37
2023-05-23T16:15:43.419Z,69.42
2023-05-23T16:18:27.668Z,69.44
2023-05-23T16:21:11.697Z,68.39
2023-05-23T16:23:55.521Z,68.13
2023-05-23T16:26:41.033Z,68.13
2023-05-23T16:29:24.981Z,67.45
2023-05-23T16:32:09.546Z,68.14
2023-05-23T16:34:54.779Z,68.76
2023-05-23T16:37:39.154Z,68.65
2023-05-23T16:40:23.146Z,67.38
2023-05-23T16:43:08.521Z,69.15
2023-05-23T16:45:52.481Z,69.27
2023-05-23T16:48:36.528Z,69.40
2023-05-23T16:51:20.506Z,68.65
2023-05-23T16:54:04.574Z,67.55
2023-05-23T16:56:48.496Z,68.78
2023-05-23T16:59:33.976Z,71.79
2023-05-23T17:02:18.170Z,69.82
2023-05-23T17:05:02.249Z,70.29
2023-05-23T17:07:48.260Z,69.46
2023-05-23T17:10:32.189Z,69.11
2023-05-23T17:13:16.096Z,69.47
2023-05-23T17:16:01.464Z,69.93
2023-05-23T17:18:45.799Z,70.80
2023-05-23T17:21:29.682Z,71.62
2023-05-23T17:24:14.157Z,72.78
2023-05-23T17:26:58.115Z,74.95
2023-05-23T17:29:42.209Z,74.87
2023-05-23T17:32:28.274Z,74.59
2023-05-23T17:35:12.201Z,75.77
2023-05-23T17:37:57.892Z,77.17
2023-05-23T17:40:42.262Z,76.46
2023-05-23T17:43:26.337Z,77.40
2023-05-23T17:46:10.361Z,78.69
2023-05-23T17:48:55.639Z,78.46
2023-05-23T17:51:39.524Z,78.40
2023-05-23T17:54:23.547Z,79.85
2023-05-23T17:57:07.721Z,79.40
2023-05-23T17:59:51.615Z,78.29
2023-05-23T18:02:35.621Z,78.55
2023-05-23T18:05:21.402Z,76.95
2023-05-23T18:08:05.556Z,75.54
2023-05-23T18:10:49.560Z,78.32
2023-05-23T18:13:33.433Z,79.58
2023-05-23T18:16:17.526Z,80.17
2023-05-23T18:19:01.599Z,80.64
2023-05-23T18:21:47.035Z,79.45
2023-05-23T18:24:31.026Z,81.01
2023-05-23T18:27:15.006Z,80.96
2023-05-23T18:29:58.984Z,82.13
2023-05-23T18:32:43.154Z,81.74
2023-05-23T18:35:27.061Z,82.82
2023-05-23T18:38:12.595Z,81.71
2023-05-23T18:40:56.863Z,81.70
2023-05-23T18:43:40.922Z,82.37
2023-05-23T18:46:25.825Z,83.44
2023-05-23T18:49:09.888Z,82.69
2023-05-23T18:51:54.560Z,83.70
2023-05-23T18:54:39.814Z,83.28
2023-05-23T18:57:23.830Z,83.40
2023-05-23T19:00:09.245Z,83.47
2023-05-23T19:02:53.371Z,84.36
2023-05-23T19:05:37.621Z,84.99
2023-05-23T19:08:21.687Z,85.81
2023-05-23T19:11:07.534Z,87.60
2023-05-23T19:13:51.478Z,86.85
2023-05-23T19:16:36.310Z,86.60
2023-05-23T19:19:20.739Z,87.41
2023-05-23T19:22:04.730Z,88.16
2023-05-23T19:24:48.638Z,87.97
2023-05-23T19:27:34.042Z,87.50
2023-05-23T19:30:17.888Z,87.75
2023-05-23T19:33:01.871Z,87.00
2023-05-23T19:35:45.764Z,86.89
2023-05-23T19:38:29.886Z,87.08
2023-05-23T19:41:13.859Z,87.72
2023-05-23T19:43:59.105Z,87.10
2023-05-23T19:46:43.111Z,87.16
2023-05-23T19:49:26.984Z,85.51
2023-05-23T19:52:10.832Z,84.41
2023-05-23T19:54:54.650Z,85.22
2023-05-23T19:57:38.899Z,84.82
2023-05-23T20:00:24.219Z,84.85
2023-05-23T20:03:08.505Z,83.42
2023-05-23T20:05:52.589Z,83.12
2023-05-23T20:08:36.461Z,82.48
2023-05-23T20:11:20.730Z,82.96
2023-05-23T20:14:04.666Z,83.70
2023-05-23T20:16:49.872Z,84.07
2023-05-23T20:19:33.879Z,82.79
2023-05-23T20:22:17.930Z,81.28
2023-05-23T20:25:01.916Z,81.51
2023-05-23T20:27:45.945Z,82.31
2023-05-23T20:30:30.744Z,82.39
2023-05-23T20:33:16.260Z,81.84
2023-05-23T20:36:00.119Z,81.80
2023-05-23T20:38:43.956Z,81.41
2023-05-23T20:41:29.536Z,83.32
2023-05-23T20:44:14.343Z,83.92
2023-05-23T20:46:58.326Z,84.26
2023-05-23T20:49:43.580Z,84.55
2023-05-23T20:52:27.812Z,85.49
2023-05-23T20:55:11.927Z,86.08
2023-05-23T20:57:56.176Z,86.54
2023-05-23T21:00:40.184Z,86.81
2023-05-23T21:03:24.373Z,85.98
2023-05-23T21:06:10.251Z,85.74
2023-05-23T21:08:54.011Z,84.96
2023-05-23T21:11:37.908Z,83.93
2023-05-23T21:14:21.858Z,85.81
2023-05-23T21:17:06.296Z,85.20
2023-05-23T21:19:50.402Z,85.50
2023-05-23T21:22:35.811Z,86.01
2023-05-23T21:25:19.890Z,86.30
2023-05-23T21:28:03.893Z,87.87
2023-05-23T21:30:47.851Z,87.56
2023-05-23T21:33:31.928Z,87.88
2023-05-23T21:36:15.947Z,87.78
2023-05-23T21:39:01.862Z,87.54
2023-05-23T21:41:45.899Z,86.57
2023-05-23T21:44:29.813Z,86.06
2023-05-23T21:47:13.624Z,85.70
2023-05-23T21:49:57.577Z,85.33
2023-05-23T21:52:41.559Z,84.80
2023-05-23T21:55:27.361Z,85.02
2023-05-23T21:58:11.264Z,84.36
2023-05-23T22:00:55.206Z,83.73
2023-05-23T22:03:39.279Z,82.79
2023-05-23T22:06:23.411Z,82.87
2023-05-23T22:09:10.212Z,82.60
2023-05-23T22:11:55.896Z,81.85
2023-05-23T22:14:39.884Z,81.52
2023-05-23T22:17:26.355Z,80.53
2023-05-23T22:20:14.648Z,80.04
2023-05-23T22:23:02.247Z,80.10
2023-05-23T22:25:46.111Z,78.78
2023-05-23T22:28:31.416Z,79.01
2023-05-23T22:31:15.751Z,80.04
2023-05-23T22:33:59.979Z,80.48
2023-05-23T22:36:43.971Z,80.61
2023-05-23T22:39:28.023Z,81.30
2023-05-23T22:42:12.077Z,81.38
2023-05-23T22:44:57.608Z,80.09
2023-05-23T22:47:41.801Z,80.65
2023-05-23T22:50:27.140Z,82.03
2023-05-23T22:53:11.678Z,82.72
2023-05-23T22:55:55.774Z,83.50
2023-05-23T22:58:39.737Z,84.74
2023-05-23T23:01:25.050Z,85.15
2023-05-23T23:04:09.082Z,85.10
2023-05-23T23:06:53.881Z,85.41
2023-05-23T23:09:37.754Z,85.17
2023-05-23T23:12:21.538Z,84.57
2023-05-23T23:15:06.128Z,84.89
2023-05-23T23:17:54.200Z,88.32
2023-05-23T23:20:39.030Z,87.79
2023-05-23T23:23:23.218Z,86.72
2023-05-23T23:26:07.241Z,86.16
2023-05-23T23:28:51.521Z,86.38
2023-05-23T23:31:35.399Z,85.77
2023-05-23T23:34:20.951Z,85.22
2023-05-23T23:37:04.944Z,84.31
2023-05-23T23:39:48.892Z,85.24
2023-05-23T23:42:32.696Z,85.43
2023-05-23T23:45:16.749Z,86.98
2023-05-23T23:48:00.878Z,86.59
2023-05-23T23:50:46.221Z,86.64
2023-05-23T23:53:30.203Z,85.57
2023-05-23T23:56:14.356Z,85.36
2023-05-23T23:58:58.349Z,85.21
